createdAt,value
2023-03-18T00:01:17.233Z,100509.00
2023-03-18T00:03:45.917Z,100511.00
2023-03-18T00:06:18.502Z,100496.00
2023-03-18T00:08:50.702Z,100506.00
2023-03-18T00:11:21.359Z,100519.00
2023-03-18T00:13:50.160Z,100519.00
2023-03-18T00:16:19.946Z,100516.00
2023-03-18T00:18:48.698Z,100475.00
2023-03-18T00:21:17.046Z,100498.00
2023-03-18T00:23:45.262Z,100509.00
2023-03-18T00:26:14.826Z,100496.00
2023-03-18T00:28:42.976Z,100469.00
2023-03-18T00:31:15.549Z,100510.00
2023-03-18T00:33:45.701Z,100490.00
2023-03-18T00:36:14.685Z,100508.00
2023-03-18T00:38:44.267Z,100503.00
2023-03-18T00:41:15.918Z,100502.00
2023-03-18T00:43:52.771Z,100497.00
2023-03-18T00:46:24.686Z,100523.00
2023-03-18T00:48:55.354Z,100503.00
2023-03-18T00:51:26.552Z,100521.00
2023-03-18T00:53:58.850Z,100507.00
2023-03-18T00:56:30.995Z,100519.00
2023-03-18T00:59:00.079Z,100490.00
2023-03-18T01:01:29.753Z,100503.00
2023-03-18T01:03:58.021Z,100491.00
2023-03-18T01:06:29.651Z,100494.00
2023-03-18T01:09:01.394Z,100523.00
2023-03-18T01:11:31.855Z,100515.00
2023-03-18T01:14:00.612Z,100516.00
2023-03-18T01:16:29.821Z,100518.00
2023-03-18T01:18:58.376Z,100511.00
2023-03-18T01:21:26.753Z,100484.00
2023-03-18T01:23:54.938Z,100536.00
2023-03-18T01:26:23.680Z,100521.00
2023-03-18T01:28:53.485Z,100489.00
2023-03-18T01:31:21.926Z,100524.00
2023-03-18T01:33:50.141Z,100539.00
2023-03-18T01:36:18.637Z,100517.00
2023-03-18T01:38:46.771Z,100541.00
2023-03-18T01:41:16.769Z,100544.00
2023-03-18T01:43:45.190Z,100535.00
2023-03-18T01:46:38.373Z,100551.00
2023-03-18T01:49:12.672Z,100539.00
2023-03-18T01:51:43.983Z,100550.00
2023-03-18T01:54:14.099Z,100531.00
2023-03-18T01:56:45.165Z,100519.00
2023-03-18T01:59:14.666Z,100544.00
2023-03-18T02:01:50.097Z,100501.00
2023-03-18T02:04:19.040Z,100499.00
2023-03-18T02:06:47.161Z,100544.00
2023-03-18T02:09:16.177Z,100546.00
2023-03-18T02:11:49.845Z,100544.00
2023-03-18T02:14:22.102Z,100529.00
2023-03-18T02:17:01.642Z,100530.00
2023-03-18T02:19:51.918Z,100505.00
2023-03-18T02:22:29.702Z,100507.00
2023-03-18T02:25:17.412Z,100514.00
2023-03-18T02:27:50.847Z,100541.00
2023-03-18T02:30:24.912Z,100538.00
2023-03-18T02:32:54.563Z,100528.00
2023-03-18T02:35:23.104Z,100546.00
2023-03-18T02:37:51.290Z,100518.00
2023-03-18T02:40:24.556Z,100519.00
2023-03-18T02:42:55.217Z,100501.00
2023-03-18T02:45:39.556Z,100564.00
2023-03-18T02:48:09.633Z,100559.00
2023-03-18T02:50:38.400Z,100563.00
2023-03-18T02:53:07.874Z,100564.00
2023-03-18T02:55:36.042Z,100561.00
2023-03-18T02:58:05.661Z,100567.00
2023-03-18T03:00:34.012Z,100522.00
2023-03-18T03:03:03.996Z,100570.00
2023-03-18T03:05:33.168Z,100541.00
2023-03-18T03:08:01.334Z,100550.00
2023-03-18T03:10:29.874Z,100554.00
2023-03-18T03:12:58.463Z,100545.00
2023-03-18T03:15:28.904Z,100582.00
2023-03-18T03:17:57.132Z,100557.00
2023-03-18T03:20:25.675Z,100570.00
2023-03-18T03:22:54.393Z,100550.00
2023-03-18T03:25:22.758Z,100583.00
2023-03-18T03:27:51.010Z,100570.00
2023-03-18T03:30:19.180Z,100571.00
2023-03-18T03:32:48.790Z,100603.00
2023-03-18T03:35:19.796Z,100601.00
2023-03-18T03:37:48.734Z,100601.00
2023-03-18T03:40:20.447Z,100596.00
2023-03-18T03:42:49.913Z,100571.00
2023-03-18T03:45:20.185Z,100586.00
2023-03-18T03:47:50.063Z,100575.00
2023-03-18T03:50:19.613Z,100606.00
2023-03-18T03:52:48.373Z,100555.00
2023-03-18T03:55:21.383Z,100609.00
2023-03-18T03:57:50.060Z,100607.00
2023-03-18T04:00:24.827Z,100620.00
2023-03-18T04:02:55.355Z,100604.00
2023-03-18T04:05:25.778Z,100588.00
2023-03-18T04:07:59.976Z,100607.00
2023-03-18T04:10:29.185Z,100583.00
2023-03-18T04:12:57.464Z,100621.00
2023-03-18T04:15:26.198Z,100615.00
2023-03-18T04:17:56.046Z,100612.00
2023-03-18T04:20:24.208Z,100622.00
2023-03-18T04:22:53.081Z,100553.00
2023-03-18T04:25:22.174Z,100632.00
2023-03-18T04:27:52.557Z,100588.00
2023-03-18T04:30:23.322Z,100590.00
2023-03-18T04:32:51.884Z,100633.00
2023-03-18T04:35:23.265Z,100637.00
2023-03-18T04:37:51.837Z,100643.00
2023-03-18T04:40:20.226Z,100607.00
2023-03-18T04:42:48.896Z,100608.00
2023-03-18T04:45:18.716Z,100620.00
2023-03-18T04:47:47.497Z,100650.00
2023-03-18T04:50:16.497Z,100644.00
2023-03-18T04:52:46.189Z,100600.00
2023-03-18T04:55:16.470Z,100621.00
2023-03-18T04:57:44.916Z,100651.00
2023-03-18T05:00:18.161Z,100654.00
2023-03-18T05:02:46.392Z,100648.00
2023-03-18T05:05:14.690Z,100624.00
2023-03-18T05:07:43.240Z,100649.00
2023-03-18T05:10:13.730Z,100646.00
2023-03-18T05:12:42.106Z,100646.00
2023-03-18T05:15:12.139Z,100641.00
2023-03-18T05:17:40.865Z,100654.00
2023-03-18T05:20:11.627Z,100654.00
2023-03-18T05:22:40.045Z,100660.00
2023-03-18T05:25:11.524Z,100650.00
2023-03-18T05:27:41.831Z,100665.00
2023-03-18T05:30:12.368Z,100658.00
2023-03-18T05:32:40.639Z,100660.00
2023-03-18T05:35:10.506Z,100660.00
2023-03-18T05:37:39.025Z,100621.00
2023-03-18T05:40:09.951Z,100635.00
2023-03-18T05:42:55.092Z,100648.00
2023-03-18T05:45:23.790Z,100645.00
2023-03-18T05:47:54.396Z,100659.00
2023-03-18T05:50:30.283Z,100660.00
2023-03-18T05:52:58.563Z,100656.00
2023-03-18T05:55:28.168Z,100670.00
2023-03-18T05:57:59.022Z,100660.00
2023-03-18T06:00:28.651Z,100660.00
2023-03-18T06:02:58.290Z,100647.00
2023-03-18T06:05:28.743Z,100639.00
2023-03-18T06:07:57.159Z,100638.00
2023-03-18T06:10:26.630Z,100684.00
2023-03-18T06:12:56.337Z,100682.00
2023-03-18T06:15:27.495Z,100695.00
2023-03-18T06:17:56.348Z,100681.00
2023-03-18T06:20:24.490Z,100698.00
2023-03-18T06:22:52.704Z,100711.00
2023-03-18T06:25:22.295Z,100704.00
2023-03-18T06:27:50.983Z,100699.00
2023-03-18T06:30:22.417Z,100713.00
2023-03-18T06:32:53.340Z,100697.00
2023-03-18T06:35:21.833Z,100694.00
2023-03-18T06:37:50.230Z,100690.00
2023-03-18T06:40:20.903Z,100693.00
2023-03-18T06:42:49.316Z,100696.00
2023-03-18T06:45:18.121Z,100724.00
2023-03-18T06:47:46.637Z,100685.00
2023-03-18T06:50:17.167Z,100704.00
2023-03-18T06:52:45.375Z,100740.00
2023-03-18T06:55:14.852Z,100713.00
2023-03-18T06:57:43.100Z,100690.00
2023-03-18T07:00:13.363Z,100729.00
2023-03-18T07:02:42.031Z,100752.00
2023-03-18T07:05:17.140Z,100736.00
2023-03-18T07:07:48.534Z,100709.00
2023-03-18T07:10:22.649Z,100738.00
2023-03-18T07:12:52.324Z,100738.00
2023-03-18T07:15:22.548Z,100726.00
2023-03-18T07:17:52.339Z,100721.00
2023-03-18T07:20:22.273Z,100771.00
2023-03-18T07:22:52.536Z,100755.00
2023-03-18T07:25:22.851Z,100788.00
2023-03-18T07:27:51.164Z,100768.00
2023-03-18T07:30:21.303Z,100769.00
2023-03-18T07:32:49.881Z,100766.00
2023-03-18T07:35:18.304Z,100797.00
2023-03-18T07:37:46.517Z,100776.00
2023-03-18T07:40:16.843Z,100784.00
2023-03-18T07:42:45.135Z,100795.00
2023-03-18T07:45:13.373Z,100775.00
2023-03-18T07:47:41.665Z,100781.00
2023-03-18T07:50:12.319Z,100784.00
2023-03-18T07:52:40.817Z,100752.00
2023-03-18T07:55:10.258Z,100779.00
2023-03-18T07:57:39.944Z,100813.00
2023-03-18T08:00:11.534Z,100770.00
2023-03-18T08:02:40.345Z,100810.00
2023-03-18T08:05:09.708Z,100796.00
2023-03-18T08:07:38.450Z,100816.00
2023-03-18T08:10:08.979Z,100809.00
2023-03-18T08:12:51.699Z,100791.00
2023-03-18T08:15:23.406Z,100821.00
2023-03-18T08:17:52.568Z,100800.00
2023-03-18T08:20:21.450Z,100762.00
2023-03-18T08:22:50.017Z,100818.00
2023-03-18T08:25:18.929Z,100811.00
2023-03-18T08:27:47.120Z,100814.00
2023-03-18T08:30:16.497Z,100796.00
2023-03-18T08:32:46.474Z,100820.00
2023-03-18T08:35:15.045Z,100798.00
2023-03-18T08:37:43.148Z,100797.00
2023-03-18T08:40:13.405Z,100833.00
2023-03-18T08:42:41.582Z,100820.00
2023-03-18T08:45:11.195Z,100785.00
2023-03-18T08:47:39.531Z,100827.00
2023-03-18T08:50:11.055Z,100830.00
2023-03-18T08:52:39.811Z,100775.00
2023-03-18T08:55:10.063Z,100830.00
2023-03-18T08:57:38.958Z,100831.00
2023-03-18T09:00:09.102Z,100837.00
2023-03-18T09:02:37.334Z,100827.00
2023-03-18T09:05:06.789Z,100839.00
2023-03-18T09:07:36.653Z,100833.00
2023-03-18T09:10:06.088Z,100819.00
2023-03-18T09:12:34.491Z,100832.00
2023-03-18T09:15:03.134Z,100832.00
2023-03-18T09:17:50.943Z,100821.00
2023-03-18T09:20:20.481Z,100843.00
2023-03-18T09:22:52.424Z,100816.00
2023-03-18T09:25:20.976Z,100849.00
2023-03-18T09:27:49.056Z,100818.00
2023-03-18T09:30:17.417Z,100833.00
2023-03-18T09:32:46.391Z,100837.00
2023-03-18T09:35:14.699Z,100828.00
2023-03-18T09:37:43.731Z,100836.00
2023-03-18T09:40:21.362Z,100857.00
2023-03-18T09:43:02.511Z,100873.00
2023-03-18T09:45:35.623Z,100871.00
2023-03-18T09:48:26.599Z,100858.00
2023-03-18T09:51:04.435Z,100874.00
2023-03-18T09:53:42.430Z,100865.00
2023-03-18T09:56:18.566Z,100866.00
2023-03-18T09:58:54.797Z,100874.00
2023-03-18T10:01:25.884Z,100862.00
2023-03-18T10:04:01.936Z,100874.00
2023-03-18T10:06:30.702Z,100846.00
2023-03-18T10:09:09.775Z,100875.00
2023-03-18T10:11:43.911Z,100862.00
2023-03-18T10:14:25.747Z,100875.00
2023-03-18T10:17:06.833Z,100874.00
2023-03-18T10:19:36.158Z,100870.00
2023-03-18T10:22:27.989Z,100877.00
2023-03-18T10:25:07.017Z,100882.00
2023-03-18T10:27:50.865Z,100879.00
2023-03-18T10:30:48.692Z,100868.00
2023-03-18T10:33:28.920Z,100884.00
2023-03-18T10:36:06.670Z,100880.00
2023-03-18T10:38:38.918Z,100881.00
2023-03-18T10:41:18.595Z,100891.00
2023-03-18T10:43:50.730Z,100898.00
2023-03-18T10:46:22.900Z,100847.00
2023-03-18T10:48:56.421Z,100904.00
2023-03-18T10:51:31.807Z,100889.00
2023-03-18T10:54:05.825Z,100908.00
2023-03-18T10:56:35.841Z,100900.00
2023-03-18T10:59:13.355Z,100895.00
2023-03-18T11:01:42.951Z,100883.00
2023-03-18T11:04:16.399Z,100894.00
2023-03-18T11:06:50.046Z,100885.00
2023-03-18T11:09:21.169Z,100888.00
2023-03-18T11:11:51.806Z,100897.00
2023-03-18T11:14:23.605Z,100895.00
2023-03-18T11:16:59.688Z,100889.00
2023-03-18T11:19:32.492Z,100890.00
2023-03-18T11:22:20.025Z,100874.00
2023-03-18T11:25:02.415Z,100863.00
2023-03-18T11:27:39.293Z,100887.00
2023-03-18T11:30:33.282Z,100869.00
2023-03-18T11:33:07.459Z,100888.00
2023-03-18T11:35:45.135Z,100887.00
2023-03-18T11:38:20.042Z,100860.00
2023-03-18T11:40:48.672Z,100884.00
2023-03-18T11:43:21.579Z,100874.00
2023-03-18T11:45:57.995Z,100872.00
2023-03-18T11:48:34.125Z,100871.00
2023-03-18T11:51:30.121Z,100863.00
2023-03-18T11:54:15.887Z,100851.00
2023-03-18T11:56:48.464Z,100845.00
2023-03-18T11:59:31.046Z,100860.00
2023-03-18T12:02:22.756Z,100874.00
2023-03-18T12:05:21.187Z,100869.00
2023-03-18T12:08:03.365Z,100860.00
2023-03-18T12:10:36.216Z,100855.00
2023-03-18T12:13:20.749Z,100862.00
2023-03-18T12:15:55.909Z,100871.00
2023-03-18T12:18:43.843Z,100866.00
2023-03-18T12:21:37.290Z,100871.00
2023-03-18T12:24:24.936Z,100854.00
2023-03-18T12:26:59.654Z,100864.00
2023-03-18T12:29:51.212Z,100863.00
2023-03-18T12:32:28.824Z,100870.00
2023-03-18T12:35:21.998Z,100867.00
2023-03-18T12:38:28.731Z,100863.00
2023-03-18T12:41:07.965Z,100867.00
2023-03-18T12:44:04.011Z,100871.00
2023-03-18T12:46:37.722Z,100865.00
2023-03-18T12:49:15.427Z,100868.00
2023-03-18T12:51:51.208Z,100863.00
2023-03-18T12:54:25.898Z,100855.00
2023-03-18T12:57:01.204Z,100844.00
2023-03-18T12:59:37.426Z,100837.00
2023-03-18T13:02:22.871Z,100831.00
2023-03-18T13:04:56.700Z,100844.00
2023-03-18T13:07:37.470Z,100820.00
2023-03-18T13:10:21.131Z,100851.00
2023-03-18T13:12:53.016Z,100856.00
2023-03-18T13:15:29.485Z,100859.00
2023-03-18T13:18:05.790Z,100845.00
2023-03-18T13:20:37.714Z,100846.00
2023-03-18T13:23:25.854Z,100850.00
2023-03-18T13:26:09.778Z,100852.00
2023-03-18T13:28:57.962Z,100851.00
2023-03-18T13:31:42.750Z,100844.00
2023-03-18T13:34:56.721Z,100844.00
2023-03-18T13:37:47.732Z,100852.00
2023-03-18T13:40:52.458Z,100838.00
2023-03-18T13:43:24.090Z,100849.00
2023-03-18T13:45:54.864Z,100848.00
2023-03-18T13:48:28.874Z,100838.00
2023-03-18T13:51:00.488Z,100848.00
2023-03-18T13:53:32.153Z,100838.00
2023-03-18T13:56:28.371Z,100835.00
2023-03-18T13:58:56.501Z,100844.00
2023-03-18T14:01:33.300Z,100832.00
2023-03-18T14:04:32.533Z,100830.00
2023-03-18T14:07:17.624Z,100829.00
2023-03-18T14:10:08.296Z,100821.00
2023-03-18T14:12:48.394Z,100823.00
2023-03-18T14:15:42.505Z,100818.00
2023-03-18T14:18:37.605Z,100809.00
2023-03-18T14:21:08.760Z,100811.00
2023-03-18T14:23:43.676Z,100805.00
2023-03-18T14:26:24.129Z,100802.00
2023-03-18T14:29:16.510Z,100812.00
2023-03-18T14:31:58.936Z,100817.00
2023-03-18T14:34:30.825Z,100818.00
2023-03-18T14:37:30.232Z,100812.00
2023-03-18T14:40:05.768Z,100803.00
2023-03-18T14:42:59.564Z,100804.00
2023-03-18T14:45:34.947Z,100810.00
2023-03-18T14:48:06.645Z,100811.00
2023-03-18T14:50:43.034Z,100805.00
2023-03-18T14:53:20.352Z,100801.00
2023-03-18T14:55:49.845Z,100794.00
2023-03-18T14:58:19.881Z,100801.00
2023-03-18T15:00:52.374Z,100808.00
2023-03-18T15:03:24.896Z,100802.00
2023-03-18T15:06:00.420Z,100811.00
2023-03-18T15:08:46.461Z,100802.00
2023-03-18T15:11:16.472Z,100798.00
2023-03-18T15:13:45.125Z,100801.00
2023-03-18T15:16:20.031Z,100799.00
2023-03-18T15:18:54.731Z,100786.00
2023-03-18T15:21:26.169Z,100810.00
2023-03-18T15:23:57.420Z,100794.00
2023-03-18T15:26:30.277Z,100803.00
2023-03-18T15:29:00.364Z,100808.00
2023-03-18T15:31:32.943Z,100807.00
2023-03-18T15:34:12.671Z,100785.00
2023-03-18T15:36:42.970Z,100785.00
2023-03-18T15:39:22.586Z,100809.00
2023-03-18T15:41:55.592Z,100804.00
2023-03-18T15:44:31.141Z,100831.00
2023-03-18T15:47:13.891Z,100839.00
2023-03-18T15:49:52.794Z,100832.00
2023-03-18T15:52:26.256Z,100847.00
2023-03-18T15:54:54.616Z,100835.00
2023-03-18T15:57:30.856Z,100828.00
2023-03-18T16:00:00.201Z,100809.00
2023-03-18T16:02:31.097Z,100837.00
2023-03-18T16:05:09.335Z,100850.00
2023-03-18T16:07:37.563Z,100852.00
2023-03-18T16:10:06.881Z,100850.00
2023-03-18T16:12:35.525Z,100845.00
2023-03-18T16:15:05.866Z,100816.00
2023-03-18T16:17:35.560Z,100796.00
2023-03-18T16:20:06.548Z,100818.00
2023-03-18T16:22:35.174Z,100826.00
2023-03-18T16:25:03.405Z,100816.00
2023-03-18T16:27:38.459Z,100833.00
2023-03-18T16:30:08.257Z,100822.00
2023-03-18T16:32:38.087Z,100807.00
2023-03-18T16:35:07.104Z,100833.00
2023-03-18T16:37:35.456Z,100827.00
2023-03-18T16:40:03.474Z,100836.00
2023-03-18T16:42:31.672Z,100822.00
2023-03-18T16:44:59.805Z,100835.00
2023-03-18T16:47:29.130Z,100815.00
2023-03-18T16:49:59.294Z,100826.00
2023-03-18T16:52:27.520Z,100831.00
2023-03-18T16:54:55.700Z,100819.00
2023-03-18T16:57:24.990Z,100815.00
2023-03-18T16:59:56.502Z,100806.00
2023-03-18T17:02:32.981Z,100787.00
2023-03-18T17:05:03.487Z,100807.00
2023-03-18T17:07:34.037Z,100801.00
2023-03-18T17:10:02.323Z,100822.00
2023-03-18T17:12:30.722Z,100827.00
2023-03-18T17:15:00.155Z,100797.00
2023-03-18T17:17:33.025Z,100830.00
2023-03-18T17:20:03.657Z,100768.00
2023-03-18T17:22:34.263Z,100798.00
2023-03-18T17:25:02.706Z,100782.00
2023-03-18T17:27:35.358Z,100830.00
2023-03-18T17:30:03.730Z,100816.00
2023-03-18T17:32:32.021Z,100816.00
2023-03-18T17:35:00.760Z,100828.00
2023-03-18T17:37:30.387Z,100783.00
2023-03-18T17:39:58.573Z,100813.00
2023-03-18T17:42:33.947Z,100811.00
2023-03-18T17:45:10.897Z,100834.00
2023-03-18T17:47:40.106Z,100805.00
2023-03-18T17:50:14.113Z,100825.00
2023-03-18T17:52:43.783Z,100831.00
2023-03-18T17:55:22.475Z,100783.00
2023-03-18T17:57:53.414Z,100849.00
2023-03-18T18:00:24.431Z,100849.00
2023-03-18T18:02:54.524Z,100811.00
2023-03-18T18:05:25.106Z,100829.00
2023-03-18T18:07:54.732Z,100796.00
2023-03-18T18:10:22.927Z,100801.00
2023-03-18T18:12:52.836Z,100827.00
2023-03-18T18:15:25.469Z,100834.00
2023-03-18T18:17:55.656Z,100809.00
2023-03-18T18:20:24.284Z,100828.00
2023-03-18T18:22:56.750Z,100834.00
2023-03-18T18:25:29.656Z,100819.00
2023-03-18T18:27:58.002Z,100797.00
2023-03-18T18:30:27.245Z,100813.00
2023-03-18T18:32:56.022Z,100835.00
2023-03-18T18:35:25.666Z,100838.00
2023-03-18T18:37:55.118Z,100829.00
2023-03-18T18:40:23.801Z,100829.00
2023-03-18T18:42:51.913Z,100817.00
2023-03-18T18:45:21.542Z,100824.00
2023-03-18T18:47:49.907Z,100857.00
2023-03-18T18:50:21.526Z,100851.00
2023-03-18T18:52:49.656Z,100845.00
2023-03-18T18:55:19.309Z,100818.00
2023-03-18T18:57:48.275Z,100852.00
2023-03-18T19:00:19.723Z,100807.00
2023-03-18T19:02:47.979Z,100843.00
2023-03-18T19:05:16.689Z,100826.00
2023-03-18T19:07:46.449Z,100828.00
2023-03-18T19:10:16.969Z,100831.00
2023-03-18T19:12:46.448Z,100829.00
2023-03-18T19:15:15.755Z,100834.00
2023-03-18T19:17:45.237Z,100826.00
2023-03-18T19:20:29.366Z,100845.00
2023-03-18T19:22:57.920Z,100784.00
2023-03-18T19:25:27.709Z,100817.00
2023-03-18T19:27:58.131Z,100826.00
2023-03-18T19:30:27.106Z,100821.00
2023-03-18T19:32:55.336Z,100823.00
2023-03-18T19:35:23.834Z,100824.00
2023-03-18T19:37:52.364Z,100850.00
2023-03-18T19:40:29.868Z,100853.00
2023-03-18T19:42:59.765Z,100852.00
2023-03-18T19:45:28.538Z,100828.00
2023-03-18T19:47:56.732Z,100796.00
2023-03-18T19:50:24.894Z,100822.00
2023-03-18T19:52:54.190Z,100798.00
2023-03-18T19:55:23.340Z,100826.00
2023-03-18T19:57:53.098Z,100844.00
2023-03-18T20:00:26.591Z,100857.00
2023-03-18T20:02:55.552Z,100859.00
2023-03-18T20:05:25.984Z,100861.00
2023-03-18T20:07:54.253Z,100801.00
2023-03-18T20:10:22.665Z,100817.00
2023-03-18T20:12:52.405Z,100862.00
2023-03-18T20:15:25.171Z,100856.00
2023-03-18T20:17:54.958Z,100870.00
2023-03-18T20:20:25.382Z,100855.00
2023-03-18T20:22:56.932Z,100834.00
2023-03-18T20:25:29.914Z,100880.00
2023-03-18T20:27:58.487Z,100875.00
2023-03-18T20:30:31.661Z,100872.00
2023-03-18T20:33:00.215Z,100858.00
2023-03-18T20:35:31.688Z,100876.00
2023-03-18T20:38:04.948Z,100848.00
2023-03-18T20:40:34.208Z,100837.00
2023-03-18T20:43:03.011Z,100864.00
2023-03-18T20:45:32.736Z,100838.00
2023-03-18T20:48:01.358Z,100828.00
2023-03-18T20:50:30.873Z,100881.00
2023-03-18T20:52:59.425Z,100882.00
2023-03-18T20:55:31.120Z,100852.00
2023-03-18T20:58:00.574Z,100876.00
2023-03-18T21:00:33.183Z,100878.00
2023-03-18T21:03:03.903Z,100823.00
2023-03-18T21:05:32.199Z,100852.00
2023-03-18T21:08:00.513Z,100857.00
2023-03-18T21:10:28.873Z,100844.00
2023-03-18T21:12:57.081Z,100817.00
2023-03-18T21:15:27.221Z,100878.00
2023-03-18T21:17:58.419Z,100848.00
2023-03-18T21:20:29.573Z,100846.00
2023-03-18T21:22:57.831Z,100877.00
2023-03-18T21:25:28.524Z,100850.00
2023-03-18T21:27:58.900Z,100827.00
2023-03-18T21:30:27.636Z,100815.00
2023-03-18T21:32:57.328Z,100834.00
2023-03-18T21:35:28.887Z,100844.00
2023-03-18T21:37:57.082Z,100853.00
2023-03-18T21:40:26.378Z,100853.00
2023-03-18T21:42:54.941Z,100864.00
2023-03-18T21:45:24.720Z,100832.00
2023-03-18T21:47:53.517Z,100872.00
2023-03-18T21:50:26.116Z,100873.00
2023-03-18T21:52:56.090Z,100881.00
2023-03-18T21:55:24.376Z,100846.00
2023-03-18T21:57:52.517Z,100896.00
2023-03-18T22:00:22.348Z,100880.00
2023-03-18T22:02:51.049Z,100874.00
2023-03-18T22:05:24.514Z,100845.00
2023-03-18T22:07:52.881Z,100878.00
2023-03-18T22:10:23.996Z,100879.00
2023-03-18T22:12:52.597Z,100852.00
2023-03-18T22:15:39.282Z,100866.00
2023-03-18T22:18:08.506Z,100859.00
2023-03-18T22:20:39.574Z,100858.00
2023-03-18T22:23:16.342Z,100856.00
2023-03-18T22:25:46.268Z,100858.00
2023-03-18T22:28:15.888Z,100833.00
2023-03-18T22:30:46.000Z,100892.00
2023-03-18T22:33:21.666Z,100886.00
2023-03-18T22:35:51.443Z,100869.00
2023-03-18T22:38:21.689Z,100884.00
2023-03-18T22:40:52.965Z,100863.00
2023-03-18T22:43:31.145Z,100865.00
2023-03-18T22:46:00.500Z,100870.00
2023-03-18T22:48:29.601Z,100859.00
2023-03-18T22:51:00.481Z,100873.00
2023-03-18T22:53:34.675Z,100846.00
2023-03-18T22:56:10.744Z,100832.00
2023-03-18T22:58:40.096Z,100848.00
2023-03-18T23:01:08.674Z,100828.00
2023-03-18T23:03:40.455Z,100824.00
2023-03-18T23:06:16.477Z,100820.00
2023-03-18T23:08:48.409Z,100828.00
2023-03-18T23:11:18.190Z,100825.00
2023-03-18T23:13:49.953Z,100802.00
2023-03-18T23:16:21.822Z,100852.00
2023-03-18T23:18:51.200Z,100820.00
2023-03-18T23:21:24.389Z,100820.00
2023-03-18T23:23:53.512Z,100819.00
2023-03-18T23:26:21.983Z,100852.00
2023-03-18T23:28:50.400Z,100847.00
2023-03-18T23:31:19.065Z,100830.00
2023-03-18T23:33:47.537Z,100848.00
2023-03-18T23:36:15.958Z,100813.00
2023-03-18T23:38:46.105Z,100846.00
2023-03-18T23:41:14.459Z,100811.00
2023-03-18T23:43:42.554Z,100790.00
2023-03-18T23:46:10.998Z,100803.00
2023-03-18T23:48:39.250Z,100810.00
2023-03-18T23:51:07.679Z,100846.00
2023-03-18T23:53:37.413Z,100823.00
2023-03-18T23:56:11.742Z,100826.00
2023-03-18T23:58:39.946Z,100844.00
